Time;durP1;ratioP1;P1;durP2;ratioP2;P2;SDS_P1;SDS_P2;PMS_P1;PMS_P2;Temp;Humidity;BMP_temperature;BMP_pressure;BME280_temperature;BME280_humidity;BME280_pressure;Samples;Min_cycle;Max_cycle;Signal;HPM_P1;HPM_P2
2020/12/25 00:01:31;;;;;;;22.27;1.92;;;3.30;98.50;;;;;;5104933;27;20494;-84
2020/12/25 00:03:59;;;;;;;10.55;1.45;;;3.30;98.50;;;;;;5097904;27;20036;-84
2020/12/25 00:06:33;;;;;;;9.40;1.30;;;3.30;98.50;;;;;;5120800;27;20061;-85
2020/12/25 00:08:59;;;;;;;12.13;1.73;;;3.30;98.80;;;;;;5081546;27;20085;-87
2020/12/25 00:11:37;;;;;;;17.00;1.98;;;3.20;98.70;;;;;;5119743;27;20043;-85
2020/12/25 00:14:03;;;;;;;17.63;3.40;;;3.20;98.80;;;;;;5101673;27;20043;-86
2020/12/25 00:16:30;;;;;;;20.85;1.55;;;3.20;98.90;;;;;;5087774;27;20481;-83
2020/12/25 00:18:56;;;;;;;25.10;3.45;;;3.10;98.90;;;;;;5117922;27;20035;-83
2020/12/25 00:21:22;;;;;;;12.20;2.17;;;3.10;99.00;;;;;;5122728;27;20100;-85
2020/12/25 00:23:48;;;;;;;20.15;2.58;;;3.20;99.20;;;;;;5090265;27;20039;-84
2020/12/25 00:26:25;;;;;;;16.00;1.92;;;3.10;99.20;;;;;;5113002;27;20047;-85
2020/12/25 00:28:52;;;;;;;23.02;2.90;;;3.00;99.10;;;;;;5093505;28;20054;-84
2020/12/25 00:31:40;;;;;;;16.27;2.10;;;3.00;99.20;;;;;;5075822;28;20063;-85
2020/12/25 00:34:08;;;;;;;12.05;1.73;;;2.90;99.20;;;;;;5072495;28;20036;-86
2020/12/25 00:36:36;;;;;;;12.30;1.65;;;2.90;99.30;;;;;;5091246;28;20047;-85
2020/12/25 00:39:05;;;;;;;16.98;2.00;;;2.90;99.40;;;;;;5072999;28;20044;-87
2020/12/25 00:41:31;;;;;;;14.48;2.08;;;2.90;99.40;;;;;;5091640;28;20036;-85
2020/12/25 00:43:57;;;;;;;23.20;1.75;;;2.90;99.40;;;;;;5056630;28;20059;-85
2020/12/25 00:46:23;;;;;;;21.40;2.17;;;2.80;99.40;;;;;;5055583;28;20038;-85
2020/12/25 00:48:49;;;;;;;14.23;1.77;;;2.90;99.50;;;;;;5073030;28;20044;-85
2020/12/25 00:51:17;;;;;;;16.23;1.60;;;2.90;99.70;;;;;;5072152;28;20040;-85
2020/12/25 00:53:43;;;;;;;16.20;1.58;;;2.70;99.60;;;;;;5083256;28;20526;-85
2020/12/25 00:56:10;;;;;;;15.52;1.55;;;2.70;99.80;;;;;;5093799;28;20048;-85
2020/12/25 00:58:37;;;;;;;27.67;1.83;;;2.60;99.80;;;;;;5056594;28;20040;-85
2020/12/25 01:01:04;;;;;;;20.95;1.73;;;2.50;99.90;;;;;;5056083;28;20047;-85
2020/12/25 01:03:31;;;;;;;14.18;1.45;;;2.60;99.90;;;;;;5072848;28;20044;-85
2020/12/25 01:05:57;;;;;;;14.45;1.70;;;2.50;99.90;;;;;;5072845;28;20054;-84
2020/12/25 01:08:23;;;;;;;21.00;1.40;;;2.40;99.90;;;;;;5063540;28;20035;-85
2020/12/25 01:10:49;;;;;;;14.80;1.85;;;2.30;99.90;;;;;;5092917;28;20126;-85
2020/12/25 01:13:15;;;;;;;16.45;2.08;;;2.20;99.90;;;;;;5058365;28;20043;-85
2020/12/25 01:15:41;;;;;;;20.80;1.70;;;2.20;99.90;;;;;;5090854;28;20141;-84
2020/12/25 01:18:07;;;;;;;15.88;2.03;;;2.10;99.90;;;;;;5089277;28;20603;-86
2020/12/25 01:20:35;;;;;;;19.48;1.98;;;2.10;99.90;;;;;;5091590;28;20054;-84
2020/12/25 01:23:01;;;;;;;11.65;1.45;;;2.10;99.90;;;;;;5092734;28;20078;-84
2020/12/25 01:25:27;;;;;;;19.75;1.95;;;2.10;99.90;;;;;;5091871;28;20060;-84
2020/12/25 01:27:53;;;;;;;12.52;1.38;;;2.00;99.90;;;;;;5078236;28;20126;-84
2020/12/25 01:30:19;;;;;;;9.00;1.60;;;2.00;99.90;;;;;;5071787;28;20505;-84
2020/12/25 01:32:44;;;;;;;16.55;2.33;;;2.00;99.90;;;;;;5039064;28;20401;-85
2020/12/25 01:35:10;;;;;;;15.43;1.95;;;2.00;99.90;;;;;;5071680;28;20131;-87
2020/12/25 01:37:36;;;;;;;14.00;1.30;;;2.50;99.90;;;;;;5072090;28;20048;-84
2020/12/25 01:40:04;;;;;;;15.02;1.77;;;2.80;99.90;;;;;;5089792;28;20050;-85
2020/12/25 01:42:29;;;;;;;3.83;0.60;;;3.00;99.90;;;;;;5071439;28;20156;-85
2020/12/25 01:44:55;;;;;;;10.52;0.60;;;3.40;99.90;;;;;;5071952;28;20551;-85
2020/12/25 01:47:21;;;;;;;2.90;0.40;;;3.60;99.90;;;;;;5064721;28;20042;-85
2020/12/25 01:49:48;;;;;;;10.55;0.65;;;3.70;99.60;;;;;;5092365;28;20082;-85
2020/12/25 01:52:14;;;;;;;2.78;0.40;;;3.70;99.60;;;;;;5091730;28;20046;-85
2020/12/25 01:54:44;;;;;;;5.78;0.60;;;3.70;99.90;;;;;;5075217;28;20040;-85
2020/12/25 01:57:13;;;;;;;3.23;0.10;;;3.80;99.90;;;;;;5050227;28;20074;-88
2020/12/25 01:59:40;;;;;;;0.98;0.20;;;3.70;99.00;;;;;;5084387;28;20070;-85
2020/12/25 02:02:08;;;;;;;2.38;0.30;;;3.70;97.20;;;;;;5091367;28;20051;-85
2020/12/25 02:04:34;;;;;;;7.90;0.80;;;3.70;98.50;;;;;;5091425;28;20051;-85
2020/12/25 02:07:00;;;;;;;3.05;0.40;;;3.70;98.60;;;;;;5090555;28;20035;-84
2020/12/25 02:09:26;;;;;;;4.35;0.50;;;3.80;99.80;;;;;;5109428;28;20097;-85
2020/12/25 02:11:53;;;;;;;1.75;0.60;;;3.70;99.90;;;;;;5091626;28;20053;-85
2020/12/25 02:14:20;;;;;;;4.38;0.45;;;3.70;99.90;;;;;;5057526;28;20074;-85
2020/12/25 02:16:46;;;;;;;7.32;1.08;;;3.60;99.90;;;;;;5054904;28;20052;-85
2020/12/25 02:19:12;;;;;;;4.05;0.38;;;3.50;99.90;;;;;;5055040;28;20044;-88
2020/12/25 02:21:38;;;;;;;4.63;0.63;;;3.50;99.90;;;;;;5089383;28;20044;-85
2020/12/25 02:24:04;;;;;;;9.85;1.08;;;3.40;99.90;;;;;;5089615;28;20469;-85
2020/12/25 02:26:30;;;;;;;6.60;0.50;;;3.40;99.90;;;;;;5072514;28;20036;-85
2020/12/25 02:28:56;;;;;;;1.10;0.40;;;3.30;99.90;;;;;;5075975;28;20051;-86
2020/12/25 02:31:23;;;;;;;10.73;0.60;;;3.40;99.90;;;;;;5052811;28;20396;-85
2020/12/25 02:33:52;;;;;;;5.25;0.40;;;3.40;99.90;;;;;;5074096;28;20054;-84
2020/12/25 02:36:17;;;;;;;4.93;0.52;;;3.40;99.90;;;;;;5058752;28;20054;-85
2020/12/25 02:38:44;;;;;;;6.75;0.93;;;3.40;99.90;;;;;;5074796;28;20036;-84
2020/12/25 02:41:09;;;;;;;9.15;0.80;;;3.40;99.90;;;;;;5058932;28;20044;-84
2020/12/25 02:43:35;;;;;;;7.13;0.55;;;3.50;99.90;;;;;;5060171;28;20127;-85
2020/12/25 02:46:01;;;;;;;14.75;1.00;;;3.50;99.90;;;;;;5078024;28;20165;-84
2020/12/25 02:48:26;;;;;;;6.88;0.73;;;3.50;99.90;;;;;;5113993;28;20054;-84
2020/12/25 02:50:52;;;;;;;5.88;0.80;;;3.50;99.90;;;;;;5080100;28;20056;-84
2020/12/25 02:53:18;;;;;;;1.95;0.93;;;3.40;99.90;;;;;;5096282;28;20039;-89
2020/12/25 02:55:44;;;;;;;7.65;0.68;;;3.40;99.90;;;;;;5076338;28;20044;-84
2020/12/25 02:58:10;;;;;;;6.70;0.93;;;3.50;99.90;;;;;;5082920;27;20043;-85
2020/12/25 03:00:35;;;;;;;11.20;1.15;;;3.40;99.90;;;;;;5089200;28;20630;-84
2020/12/25 03:03:01;;;;;;;7.43;0.80;;;3.40;99.90;;;;;;5103500;28;20448;-85
2020/12/25 03:05:27;;;;;;;6.50;0.70;;;3.40;99.90;;;;;;5068334;27;20496;-85
2020/12/25 03:07:53;;;;;;;3.13;0.30;;;3.50;99.90;;;;;;5089260;27;20449;-86
2020/12/25 03:10:18;;;;;;;4.65;0.68;;;3.50;99.90;;;;;;5107938;27;20043;-89
2020/12/25 03:12:44;;;;;;;15.43;1.27;;;3.60;99.90;;;;;;5072572;27;20092;-86
2020/12/25 03:15:10;;;;;;;13.60;1.23;;;3.50;99.90;;;;;;5089903;28;20569;-89
2020/12/25 03:17:36;;;;;;;12.65;1.00;;;3.50;99.90;;;;;;5102987;28;20548;-87
2020/12/25 03:20:02;;;;;;;3.40;0.68;;;3.40;99.90;;;;;;5098347;27;20527;-86
2020/12/25 03:22:28;;;;;;;7.72;0.75;;;3.40;99.90;;;;;;5133801;27;20126;-84
2020/12/25 03:24:53;;;;;;;4.47;0.90;;;3.30;99.90;;;;;;5108967;27;20154;-85
2020/12/25 03:27:19;;;;;;;8.73;0.75;;;3.30;99.90;;;;;;5075050;28;20054;-88
2020/12/25 03:29:45;;;;;;;7.70;1.05;;;3.20;99.90;;;;;;5075352;28;20062;-84
2020/12/25 03:32:11;;;;;;;5.35;1.48;;;3.20;99.90;;;;;;5074872;28;20036;-83
2020/12/25 03:34:37;;;;;;;4.75;0.50;;;3.20;99.90;;;;;;5066600;28;20477;-83
2020/12/25 03:37:02;;;;;;;3.88;0.70;;;3.10;99.90;;;;;;5078000;28;20047;-84
2020/12/25 03:39:29;;;;;;;16.85;1.17;;;3.10;99.90;;;;;;5090406;28;20040;-85
2020/12/25 03:41:55;;;;;;;10.75;1.05;;;3.00;99.90;;;;;;5041551;28;20048;-84
2020/12/25 03:44:20;;;;;;;11.48;1.40;;;2.90;99.90;;;;;;5069701;28;20548;-88
2020/12/25 03:46:46;;;;;;;6.80;0.80;;;2.80;99.90;;;;;;5092532;28;20040;-85
2020/12/25 03:49:12;;;;;;;9.63;0.82;;;2.70;99.90;;;;;;5074886;28;20090;-85
2020/12/25 03:51:38;;;;;;;6.50;0.75;;;2.60;99.90;;;;;;5091747;28;20044;-84
2020/12/25 03:54:04;;;;;;;1.70;0.47;;;2.50;99.90;;;;;;5089384;28;20044;-84
2020/12/25 03:56:30;;;;;;;6.60;0.88;;;2.40;99.90;;;;;;5094374;28;20036;-84
2020/12/25 03:58:56;;;;;;;11.63;0.80;;;2.30;99.90;;;;;;5077865;28;20506;-86
2020/12/25 04:01:21;;;;;;;10.95;1.00;;;2.30;99.90;;;;;;5112662;28;20042;-88
2020/12/25 04:03:47;;;;;;;5.75;0.82;;;2.20;99.90;;;;;;5093063;28;20043;-84
2020/12/25 04:06:13;;;;;;;9.00;0.50;;;2.20;99.90;;;;;;5094648;28;20126;-84
2020/12/25 04:08:38;;;;;;;8.32;0.57;;;2.20;99.90;;;;;;5093753;28;20040;-86
2020/12/25 04:11:08;;;;;;;16.33;1.00;;;2.10;99.90;;;;;;5094378;28;20503;-85
2020/12/25 04:13:34;;;;;;;4.57;0.57;;;2.00;99.90;;;;;;5101170;28;20392;-84
2020/12/25 04:16:00;;;;;;;3.70;0.40;;;2.10;99.90;;;;;;5055328;28;20040;-85
2020/12/25 04:18:27;;;;;;;7.88;0.95;;;1.90;99.90;;;;;;5077146;28;20086;-87
2020/12/25 04:20:52;;;;;;;6.00;0.68;;;1.90;99.90;;;;;;5077561;28;20083;-84
2020/12/25 04:23:18;;;;;;;8.35;0.90;;;1.80;99.90;;;;;;5087776;28;20048;-85
2020/12/25 04:25:44;;;;;;;2.33;1.30;;;1.90;99.90;;;;;;5076520;28;20476;-84
2020/12/25 04:28:10;;;;;;;10.07;1.95;;;1.90;99.90;;;;;;5077199;28;20054;-85
2020/12/25 04:30:36;;;;;;;1.58;0.47;;;1.90;99.90;;;;;;5111617;28;20055;-83
2020/12/25 04:33:01;;;;;;;10.32;0.88;;;1.90;99.90;;;;;;5088985;28;20044;-84
2020/12/25 04:35:28;;;;;;;8.15;0.73;;;1.80;99.90;;;;;;5081934;28;20488;-88
2020/12/25 04:37:53;;;;;;;10.60;0.93;;;1.80;99.90;;;;;;5093572;28;20134;-84
2020/12/25 04:40:20;;;;;;;6.10;0.82;;;1.70;99.90;;;;;;5076646;28;20043;-85
2020/12/25 04:42:52;;;;;;;5.22;0.68;;;1.70;99.90;;;;;;5090055;28;20172;-84
2020/12/25 04:45:18;;;;;;;7.25;0.80;;;1.60;99.90;;;;;;5073173;28;20048;-87
2020/12/25 04:47:46;;;;;;;12.43;0.95;;;1.50;99.90;;;;;;5072280;28;20085;-84
2020/12/25 04:50:12;;;;;;;10.25;0.70;;;1.60;99.90;;;;;;5073444;28;20048;-84
2020/12/25 04:52:38;;;;;;;11.85;1.25;;;1.70;99.90;;;;;;5091964;28;20044;-85
2020/12/25 04:55:05;;;;;;;9.13;0.70;;;1.70;99.90;;;;;;5110890;28;20054;-88
2020/12/25 04:57:31;;;;;;;8.82;0.88;;;1.70;99.90;;;;;;5092371;28;20048;-85
2020/12/25 04:59:56;;;;;;;9.68;1.25;;;1.80;99.90;;;;;;5093168;28;20116;-84
2020/12/25 05:02:22;;;;;;;17.30;1.35;;;1.80;99.90;;;;;;5111356;28;20044;-84
2020/12/25 05:04:48;;;;;;;7.68;0.82;;;1.80;99.90;;;;;;5072651;28;20070;-83
2020/12/25 05:07:14;;;;;;;10.90;1.40;;;2.00;99.90;;;;;;5090125;28;20424;-84
2020/12/25 05:09:41;;;;;;;9.25;0.73;;;2.00;99.90;;;;;;5071950;28;20055;-83
2020/12/25 05:12:11;;;;;;;14.57;1.98;;;2.20;99.90;;;;;;5055837;28;20450;-83
2020/12/25 05:14:41;;;;;;;20.00;2.53;;;2.40;99.90;;;;;;5087584;28;20126;-84
2020/12/25 05:17:11;;;;;;;13.23;1.38;;;2.90;99.90;;;;;;5072278;28;20181;-84
2020/12/25 05:19:40;;;;;;;14.35;1.58;;;3.30;99.80;;;;;;5089724;28;20052;-84
2020/12/25 05:22:06;;;;;;;7.90;1.17;;;3.40;99.60;;;;;;5072423;28;20052;-84
2020/12/25 05:24:37;;;;;;;10.77;1.40;;;3.50;99.50;;;;;;5088146;28;20138;-89
2020/12/25 05:27:11;;;;;;;17.02;1.45;;;3.70;99.10;;;;;;5093012;28;20036;-85
2020/12/25 05:29:38;;;;;;;9.75;2.83;;;3.80;98.70;;;;;;5110328;28;20040;-83
2020/12/25 05:32:05;;;;;;;18.45;1.85;;;3.90;98.00;;;;;;5075630;28;20396;-84
2020/12/25 05:34:33;;;;;;;17.38;2.45;;;3.70;98.10;;;;;;5058291;28;20059;-88
2020/12/25 05:37:01;;;;;;;21.23;2.63;;;3.40;98.70;;;;;;5055492;28;20480;-84
2020/12/25 05:39:32;;;;;;;16.17;2.00;;;3.20;99.00;;;;;;5072205;28;20089;-84
2020/12/25 05:42:05;;;;;;;19.55;2.47;;;3.00;99.40;;;;;;5054936;28;20048;-84
2020/12/25 05:44:39;;;;;;;16.08;2.47;;;2.80;99.80;;;;;;5087165;28;20073;-88
2020/12/25 05:47:07;;;;;;;18.55;2.65;;;2.90;99.70;;;;;;5110409;28;20031;-84
2020/12/25 05:49:33;;;;;;;26.55;2.40;;;3.00;99.40;;;;;;5092042;28;20035;-87
2020/12/25 05:51:59;;;;;;;16.17;2.83;;;3.30;98.20;;;;;;5091746;28;20084;-84
2020/12/25 05:54:27;;;;;;;16.40;1.88;;;3.30;98.10;;;;;;5076449;28;20455;-84
2020/12/25 05:56:57;;;;;;;13.75;2.08;;;3.30;98.10;;;;;;5070699;28;20048;-84
2020/12/25 05:59:27;;;;;;;3.35;1.30;;;3.30;98.30;;;;;;5071284;28;20044;-85
2020/12/25 06:01:59;;;;;;;21.23;1.95;;;3.40;98.10;;;;;;5089386;28;20518;-84
2020/12/25 06:04:31;;;;;;;14.75;1.77;;;3.50;98.20;;;;;;5086351;28;20484;-83
2020/12/25 06:06:57;;;;;;;14.10;2.00;;;3.50;97.70;;;;;;5109212;28;20043;-83
2020/12/25 06:09:33;;;;;;;13.07;2.55;;;3.50;97.70;;;;;;5091789;28;20048;-83
2020/12/25 06:12:03;;;;;;;7.68;0.98;;;3.70;97.30;;;;;;5091210;28;20043;-83
2020/12/25 06:14:28;;;;;;;28.88;2.08;;;3.80;95.50;;;;;;5076319;28;20480;-84
2020/12/25 06:17:18;;;;;;;15.00;1.70;;;4.10;93.00;;;;;;5070499;28;20097;-84
2020/12/25 06:19:58;;;;;;;22.70;2.35;;;4.20;94.80;;;;;;5117403;28;20082;-85
2020/12/25 06:22:31;;;;;;;15.25;1.58;;;4.40;93.20;;;;;;5119889;28;20480;-86
2020/12/25 06:25:00;;;;;;;6.78;0.82;;;4.50;93.10;;;;;;5100858;28;20575;-85
2020/12/25 06:27:27;;;;;;;19.70;1.58;;;4.50;92.00;;;;;;5114966;28;20039;-85
2020/12/25 06:29:56;;;;;;;11.20;1.60;;;4.50;92.30;;;;;;5080674;28;20039;-85
2020/12/25 06:32:23;;;;;;;27.25;2.15;;;4.70;93.30;;;;;;5121550;28;20489;-84
2020/12/25 06:34:51;;;;;;;6.35;0.80;;;4.70;93.90;;;;;;5130233;28;20047;-85
2020/12/25 06:37:17;;;;;;;8.05;1.15;;;4.80;93.60;;;;;;5131347;28;20055;-88
2020/12/25 06:39:47;;;;;;;13.65;1.15;;;4.90;93.90;;;;;;5092084;28;20044;-85
2020/12/25 06:42:14;;;;;;;5.05;1.27;;;4.80;92.70;;;;;;5092104;28;20039;-85
2020/12/25 06:44:48;;;;;;;19.88;1.83;;;4.80;92.40;;;;;;5074314;28;20035;-89
2020/12/25 06:47:28;;;;;;;12.50;1.85;;;4.70;92.50;;;;;;5091770;28;20075;-85
2020/12/25 06:49:54;;;;;;;;;;;4.60;93.80;;;;;;5071721;28;20046;-87
2020/12/25 06:52:30;;;;;;;7.45;0.73;;;4.40;94.30;;;;;;5071626;28;19920;-86
2020/12/25 06:54:57;;;;;;;18.45;1.75;;;4.30;94.70;;;;;;5071156;28;20290;-85
2020/12/25 06:57:27;;;;;;;19.17;1.80;;;4.30;95.20;;;;;;5089277;28;20123;-87
2020/12/25 06:59:57;;;;;;;16.92;1.25;;;4.20;95.10;;;;;;5109036;28;20050;-86
2020/12/25 07:02:23;;;;;;;4.67;1.20;;;4.10;95.40;;;;;;5109703;28;20088;-86
2020/12/25 07:04:50;;;;;;;10.75;1.10;;;4.20;95.50;;;;;;5073689;28;20289;-86
2020/12/25 07:07:20;;;;;;;15.60;1.52;;;4.10;95.30;;;;;;5109636;28;20488;-87
2020/12/25 07:09:47;;;;;;;14.43;1.15;;;4.20;95.70;;;;;;5075161;28;20070;-85
2020/12/25 07:12:18;;;;;;;16.48;1.35;;;4.20;95.70;;;;;;5109477;28;20122;-86
2020/12/25 07:14:44;;;;;;;4.63;0.75;;;4.30;95.30;;;;;;5090931;28;20463;-86
2020/12/25 07:17:10;;;;;;;6.50;0.75;;;4.40;95.00;;;;;;5092158;28;20050;-87
2020/12/25 07:19:37;;;;;;;12.73;1.65;;;4.30;97.60;;;;;;5077873;28;20476;-87
2020/12/25 07:22:07;;;;;;;14.38;0.75;;;4.00;98.20;;;;;;5113068;28;20067;-87
2020/12/25 07:24:38;;;;;;;4.30;0.65;;;3.80;99.20;;;;;;5115054;28;20111;-87
2020/12/25 07:27:04;;;;;;;2.85;0.77;;;3.60;99.80;;;;;;5114412;28;20097;-88
2020/12/25 07:29:32;;;;;;;0.85;0.32;;;3.40;99.90;;;;;;5059919;28;20557;-87
2020/12/25 07:31:57;;;;;;;3.17;0.40;;;3.30;99.90;;;;;;5075177;28;20495;-87
2020/12/25 07:34:25;;;;;;;11.63;1.08;;;3.10;99.90;;;;;;5075473;28;20044;-87
2020/12/25 07:36:53;;;;;;;2.65;0.50;;;3.20;99.90;;;;;;5092827;28;20075;-87
2020/12/25 07:39:20;;;;;;;3.30;0.32;;;3.10;99.90;;;;;;5093961;28;20442;-87
2020/12/25 07:41:46;;;;;;;0.35;0.15;;;3.20;99.90;;;;;;5077975;28;20484;-88
2020/12/25 07:44:12;;;;;;;4.55;0.40;;;3.30;99.90;;;;;;5095859;28;20050;-87
2020/12/25 07:46:39;;;;;;;4.00;0.50;;;3.30;99.40;;;;;;5095780;28;20043;-89
2020/12/25 07:49:06;;;;;;;0.00;0.00;;;3.30;99.10;;;;;;5095277;28;20079;-88
2020/12/25 07:51:32;;;;;;;1.00;0.10;;;3.40;97.20;;;;;;5094804;28;20544;-87
2020/12/25 07:54:00;;;;;;;0.75;0.38;;;3.50;96.90;;;;;;5075313;28;20048;-90
2020/12/25 07:56:33;;;;;;;6.45;0.50;;;3.70;98.40;;;;;;5075684;28;20826;-88
2020/12/25 07:59:00;;;;;;;6.57;0.68;;;3.70;98.50;;;;;;5093480;28;20040;-87
2020/12/25 08:01:29;;;;;;;1.38;0.43;;;3.80;98.50;;;;;;5081049;27;20047;-88
2020/12/25 08:03:57;;;;;;;0.85;0.35;;;3.60;98.90;;;;;;5057781;28;20052;-86
2020/12/25 08:06:25;;;;;;;2.58;0.32;;;3.60;97.50;;;;;;5115067;27;20070;-86
2020/12/25 08:08:53;;;;;;;4.53;0.60;;;3.60;98.60;;;;;;5097736;27;20127;-86
2020/12/25 08:11:20;;;;;;;1.85;0.20;;;3.40;98.70;;;;;;5098697;28;20044;-86
2020/12/25 08:13:49;;;;;;;4.80;0.40;;;3.40;99.00;;;;;;5092029;28;20050;-90
2020/12/25 08:16:16;;;;;;;2.37;0.47;;;3.30;99.10;;;;;;5112202;27;20531;-86
2020/12/25 08:18:42;;;;;;;4.80;0.55;;;3.30;99.20;;;;;;5081343;28;20403;-85
2020/12/25 08:21:08;;;;;;;5.72;0.60;;;3.30;99.60;;;;;;5073299;28;20050;-86
2020/12/25 08:23:37;;;;;;;8.82;0.77;;;3.20;99.20;;;;;;5092257;28;20552;-86
2020/12/25 08:26:06;;;;;;;3.28;0.52;;;3.20;99.60;;;;;;5053334;28;20056;-86
2020/12/25 08:28:32;;;;;;;1.88;0.40;;;3.10;99.70;;;;;;5070288;28;20041;-85
2020/12/25 08:31:12;;;;;;;1.35;0.30;;;3.10;99.70;;;;;;5087232;28;20046;-85
2020/12/25 08:33:37;;;;;;;6.38;0.63;;;3.00;99.80;;;;;;5090395;28;20089;-86
2020/12/25 08:36:11;;;;;;;12.30;0.85;;;3.00;99.80;;;;;;5089645;28;20044;-85
2020/12/25 08:38:44;;;;;;;2.40;0.20;;;2.90;99.90;;;;;;5090579;28;20127;-86
2020/12/25 08:41:10;;;;;;;4.80;0.52;;;2.90;99.90;;;;;;5069638;28;20094;-87
2020/12/25 08:43:36;;;;;;;3.60;0.52;;;2.90;99.90;;;;;;5053399;28;20052;-85
2020/12/25 08:46:03;;;;;;;3.40;0.40;;;2.90;99.90;;;;;;5069286;28;20059;-86
2020/12/25 08:48:30;;;;;;;4.43;0.50;;;2.80;99.90;;;;;;5053151;28;20056;-86
2020/12/25 08:51:10;;;;;;;4.47;0.20;;;2.70;99.90;;;;;;5069261;28;20044;-86
2020/12/25 08:53:38;;;;;;;2.42;0.30;;;2.70;99.90;;;;;;5069466;28;20050;-86
2020/12/25 08:56:20;;;;;;;1.58;0.40;;;2.60;99.90;;;;;;5053377;28;20044;-86
2020/12/25 08:59:04;;;;;;;1.00;0.30;;;2.60;99.90;;;;;;5070210;28;20045;-88
2020/12/25 09:01:32;;;;;;;8.27;0.45;;;2.60;99.70;;;;;;5071543;28;20527;-86
2020/12/25 09:04:01;;;;;;;5.22;0.43;;;2.70;99.70;;;;;;5069968;28;20084;-85
2020/12/25 09:06:27;;;;;;;6.32;0.57;;;2.60;99.90;;;;;;5078295;28;20051;-87
2020/12/25 09:08:53;;;;;;;7.50;0.75;;;2.70;99.90;;;;;;5099669;28;20093;-88
2020/12/25 09:11:22;;;;;;;9.43;0.65;;;2.70;99.90;;;;;;5100413;28;20040;-85
2020/12/25 09:13:48;;;;;;;0.88;0.20;;;2.70;99.90;;;;;;5077621;28;20480;-86
2020/12/25 09:16:14;;;;;;;0.68;0.22;;;2.90;99.90;;;;;;5089671;28;20038;-86
2020/12/25 09:18:41;;;;;;;1.25;0.30;;;3.00;99.90;;;;;;5107066;28;20538;-88
2020/12/25 09:21:11;;;;;;;4.63;0.50;;;3.10;99.90;;;;;;5095479;28;20527;-86
2020/12/25 09:23:37;;;;;;;5.38;2.00;;;3.10;99.60;;;;;;5072343;28;20532;-86
2020/12/25 09:26:05;;;;;;;2.05;0.32;;;3.10;99.70;;;;;;5072802;28;20056;-85
2020/12/25 09:28:31;;;;;;;5.32;0.57;;;3.10;99.80;;;;;;5070462;28;20045;-85
2020/12/25 09:30:57;;;;;;;1.85;0.47;;;3.10;99.90;;;;;;5051615;28;20082;-84
2020/12/25 09:33:23;;;;;;;2.88;0.63;;;3.20;99.50;;;;;;5068449;28;20048;-86
2020/12/25 09:35:50;;;;;;;8.60;2.17;;;3.50;99.80;;;;;;5053514;28;20101;-85
2020/12/25 09:38:16;;;;;;;2.67;0.43;;;3.60;99.80;;;;;;5050796;28;20052;-85
2020/12/25 09:40:42;;;;;;;3.40;0.75;;;3.80;99.80;;;;;;5085169;28;20044;-86
2020/12/25 09:43:08;;;;;;;3.38;0.30;;;3.90;99.70;;;;;;5050778;28;20496;-85
2020/12/25 09:45:34;;;;;;;0.63;0.10;;;4.00;99.30;;;;;;5068807;28;20036;-86
2020/12/25 09:48:00;;;;;;;3.25;0.50;;;4.00;97.30;;;;;;5068728;28;20044;-86
2020/12/25 09:50:27;;;;;;;5.57;0.68;;;4.00;97.20;;;;;;5051668;28;20432;-86
2020/12/25 09:52:52;;;;;;;5.57;0.82;;;3.80;98.30;;;;;;5068120;28;20040;-88
2020/12/25 09:55:18;;;;;;;2.90;0.47;;;3.80;99.00;;;;;;5059742;28;20051;-86
2020/12/25 09:57:47;;;;;;;6.63;0.68;;;3.60;99.50;;;;;;5079905;28;20089;-85
2020/12/25 10:00:14;;;;;;;1.63;0.50;;;3.60;99.60;;;;;;5094372;28;20775;-85
2020/12/25 10:02:41;;;;;;;8.80;0.60;;;3.50;99.20;;;;;;5098345;28;20044;-85
2020/12/25 10:05:08;;;;;;;6.88;1.15;;;3.40;99.90;;;;;;5095187;28;20036;-85
2020/12/25 10:07:34;;;;;;;9.75;1.10;;;3.40;99.90;;;;;;5095389;28;20038;-87
2020/12/25 10:10:00;;;;;;;8.05;1.13;;;3.40;99.90;;;;;;5084972;28;20036;-86
2020/12/25 10:12:26;;;;;;;6.93;1.05;;;3.50;99.90;;;;;;5088558;28;20054;-85
2020/12/25 10:14:52;;;;;;;5.07;1.23;;;3.40;99.90;;;;;;5086756;28;20408;-85
2020/12/25 10:17:18;;;;;;;9.23;2.35;;;3.50;99.90;;;;;;5092228;28;20036;-85
2020/12/25 10:19:46;;;;;;;8.77;1.92;;;3.40;99.90;;;;;;5091166;28;20491;-82
2020/12/25 10:22:15;;;;;;;3.75;0.60;;;3.50;99.90;;;;;;5084675;28;20226;-84
2020/12/25 10:24:41;;;;;;;8.52;1.10;;;3.50;99.90;;;;;;5095882;28;20048;-84
2020/12/25 10:27:07;;;;;;;5.68;1.30;;;3.50;99.90;;;;;;5081098;28;20091;-83
2020/12/25 10:29:33;;;;;;;2.72;0.77;;;3.50;99.90;;;;;;5096796;28;20028;-85
2020/12/25 10:31:59;;;;;;;3.47;0.75;;;3.40;99.90;;;;;;5077635;28;20039;-86
2020/12/25 10:34:24;;;;;;;9.05;0.90;;;3.50;99.90;;;;;;5061522;28;20101;-83
2020/12/25 10:36:50;;;;;;;7.18;0.80;;;3.50;99.90;;;;;;5082952;28;20039;-84
2020/12/25 10:39:16;;;;;;;9.93;1.10;;;3.60;99.90;;;;;;5096821;28;20527;-84
2020/12/25 10:41:42;;;;;;;10.90;1.13;;;3.60;99.90;;;;;;5094178;28;20043;-84
2020/12/25 10:44:08;;;;;;;9.63;0.98;;;3.60;99.90;;;;;;5096343;28;20549;-84
2020/12/25 10:46:35;;;;;;;13.15;0.95;;;3.70;99.90;;;;;;5095307;28;20071;-84
2020/12/25 10:49:01;;;;;;;6.57;1.13;;;3.80;99.90;;;;;;5107252;28;20047;-86
2020/12/25 10:51:27;;;;;;;4.22;0.63;;;3.80;99.90;;;;;;5064540;28;20043;-84
2020/12/25 10:53:53;;;;;;;4.88;0.75;;;3.80;99.90;;;;;;5069040;28;20416;-84
2020/12/25 10:56:23;;;;;;;8.40;2.38;;;3.80;99.90;;;;;;5086997;28;20049;-85
2020/12/25 10:58:53;;;;;;;9.98;1.52;;;3.80;99.90;;;;;;5096141;28;20043;-84
2020/12/25 11:01:23;;;;;;;5.00;0.88;;;3.90;99.90;;;;;;5084754;28;20047;-85
2020/12/25 11:03:49;;;;;;;10.40;1.77;;;3.90;99.90;;;;;;5063118;28;20434;-84
2020/12/25 11:06:16;;;;;;;6.97;0.85;;;4.00;99.90;;;;;;5070585;28;20089;-86
2020/12/25 11:08:41;;;;;;;5.90;0.77;;;4.00;99.90;;;;;;5073202;28;20058;-84
2020/12/25 11:11:07;;;;;;;5.47;0.88;;;4.00;99.90;;;;;;5069125;28;20044;-85
2020/12/25 11:13:34;;;;;;;8.20;0.95;;;4.10;99.90;;;;;;5099802;28;20434;-84
2020/12/25 11:16:00;;;;;;;5.05;0.90;;;4.00;99.90;;;;;;5066577;28;20123;-85
2020/12/25 11:18:25;;;;;;;7.00;0.98;;;4.10;99.90;;;;;;5093285;28;20949;-85
2020/12/25 11:20:51;;;;;;;11.05;0.90;;;4.10;99.90;;;;;;5071105;28;20044;-85
2020/12/25 11:23:17;;;;;;;5.57;1.00;;;4.20;99.90;;;;;;5088990;28;20480;-85
2020/12/25 11:25:43;;;;;;;4.53;0.82;;;4.20;99.90;;;;;;5087703;28;20509;-86
2020/12/25 11:28:08;;;;;;;3.33;0.80;;;4.30;99.90;;;;;;5092196;28;20397;-86
2020/12/25 11:30:34;;;;;;;4.72;0.95;;;4.30;99.90;;;;;;5079168;28;20056;-84
2020/12/25 11:33:00;;;;;;;3.58;0.90;;;4.40;99.90;;;;;;5094294;28;20093;-85
2020/12/25 11:35:26;;;;;;;7.13;0.80;;;4.50;99.90;;;;;;5055798;28;20050;-85
2020/12/25 11:37:51;;;;;;;4.63;0.70;;;4.60;99.90;;;;;;5077168;28;20476;-84
2020/12/25 11:40:17;;;;;;;6.50;0.70;;;4.60;99.90;;;;;;5069159;28;20036;-85
2020/12/25 11:42:43;;;;;;;6.28;1.02;;;4.60;99.90;;;;;;5057318;28;20052;-85
2020/12/25 11:45:09;;;;;;;7.88;1.02;;;4.60;99.40;;;;;;5046399;28;20050;-87
2020/12/25 11:47:34;;;;;;;7.75;1.00;;;4.60;99.00;;;;;;5077335;28;20047;-86
2020/12/25 11:50:01;;;;;;;7.32;1.10;;;4.60;99.30;;;;;;5056677;28;20051;-84
2020/12/25 11:52:32;;;;;;;4.22;0.85;;;4.60;99.00;;;;;;5077052;28;20591;-85
2020/12/25 11:54:58;;;;;;;6.22;0.90;;;4.60;98.00;;;;;;5091862;28;20544;-84
2020/12/25 11:57:27;;;;;;;2.72;0.65;;;4.70;98.90;;;;;;5095783;28;20043;-84
2020/12/25 11:59:53;;;;;;;6.57;0.88;;;4.70;98.40;;;;;;5110229;28;20488;-83
2020/12/25 12:02:18;;;;;;;3.72;0.77;;;4.70;98.70;;;;;;5060805;28;20047;-85
2020/12/25 12:04:44;;;;;;;7.72;1.27;;;4.80;99.00;;;;;;5075044;28;20120;-84
2020/12/25 12:07:10;;;;;;;4.78;1.38;;;4.80;98.40;;;;;;5054193;28;20117;-87
2020/12/25 12:09:36;;;;;;;5.97;0.70;;;4.80;97.70;;;;;;5052823;28;20168;-87
2020/12/25 12:12:02;;;;;;;4.18;0.50;;;4.80;95.40;;;;;;5063066;28;20064;-86
2020/12/25 12:14:27;;;;;;;2.40;0.52;;;4.70;94.90;;;;;;5088674;28;20086;-86
2020/12/25 12:16:53;;;;;;;3.70;0.75;;;4.70;96.30;;;;;;5075214;28;20059;-83
2020/12/25 12:19:19;;;;;;;1.77;0.40;;;4.80;96.40;;;;;;5085311;28;20097;-83
2020/12/25 12:21:45;;;;;;;5.13;0.47;;;5.00;96.10;;;;;;5072887;28;20581;-83
2020/12/25 12:24:10;;;;;;;1.80;0.30;;;5.10;97.60;;;;;;5092019;28;20052;-87
2020/12/25 12:26:36;;;;;;;4.05;0.45;;;5.20;97.50;;;;;;5067768;28;20382;-83
2020/12/25 12:29:02;;;;;;;2.90;0.40;;;5.20;97.90;;;;;;5062280;28;20099;-83
2020/12/25 12:31:28;;;;;;;4.60;1.00;;;5.20;98.10;;;;;;5083585;28;20041;-84
2020/12/25 12:33:53;;;;;;;3.78;0.60;;;5.10;96.80;;;;;;5083992;28;20740;-86
2020/12/25 12:36:19;;;;;;;4.70;0.60;;;5.10;97.40;;;;;;5064689;28;20048;-87
2020/12/25 12:38:45;;;;;;;2.95;0.20;;;5.10;97.20;;;;;;5083213;28;20123;-86
2020/12/25 12:41:11;;;;;;;13.65;3.30;;;5.00;96.10;;;;;;5068379;28;20123;-86
2020/12/25 12:43:37;;;;;;;5.18;0.47;;;5.00;95.40;;;;;;5055842;28;20485;-86
2020/12/25 12:46:05;;;;;;;1.23;0.38;;;5.00;96.30;;;;;;5057732;28;20071;-85
2020/12/25 12:48:30;;;;;;;4.28;0.47;;;4.90;95.60;;;;;;5087560;28;20115;-85
2020/12/25 12:50:57;;;;;;;3.35;0.22;;;5.00;92.70;;;;;;5088754;28;20528;-85
2020/12/25 12:53:22;;;;;;;5.57;0.45;;;5.00;89.60;;;;;;5055092;28;20044;-84